sensor_id;sensor_type;location;lat;lon;timestamp;pressure;altitude;pressure_sealevel;temperature;humidity
8286;BME280;4181;43.416;24.598;2022-11-20T00:01:46;99200.34;;;12.41;100.00
8286;BME280;4181;43.416;24.598;2022-11-20T00:04:12;99203.22;;;12.54;100.00
8286;BME280;4181;43.416;24.598;2022-11-20T00:06:37;99199.66;;;12.54;100.00
8286;BME280;4181;43.416;24.598;2022-11-20T00:09:04;99200.28;;;12.46;100.00
8286;BME280;4181;43.416;24.598;2022-11-20T00:11:31;99219.03;;;12.29;100.00
8286;BME280;4181;43.416;24.598;2022-11-20T00:13:59;99209.44;;;12.31;100.00
8286;BME280;4181;43.416;24.598;2022-11-20T00:16:27;99210.75;;;12.39;100.00
8286;BME280;4181;43.416;24.598;2022-11-20T00:18:53;99194.00;;;12.07;100.00
8286;BME280;4181;43.416;24.598;2022-11-20T00:21:21;99190.16;;;12.13;100.00
8286;BME280;4181;43.416;24.598;2022-11-20T00:23:48;99169.91;;;12.14;100.00
8286;BME280;4181;43.416;24.598;2022-11-20T00:26:16;99161.09;;;12.22;100.00
8286;BME280;4181;43.416;24.598;2022-11-20T00:28:42;99151.47;;;12.29;100.00
8286;BME280;4181;43.416;24.598;2022-11-20T00:31:09;99165.75;;;12.21;100.00
8286;BME280;4181;43.416;24.598;2022-11-20T00:33:35;99180.75;;;12.24;100.00
8286;BME280;4181;43.416;24.598;2022-11-20T00:36:05;99196.53;;;12.37;100.00
8286;BME280;4181;43.416;24.598;2022-11-20T00:38:32;99203.97;;;12.31;100.00
8286;BME280;4181;43.416;24.598;2022-11-20T00:41:00;99209.03;;;12.09;100.00
8286;BME280;4181;43.416;24.598;2022-11-20T00:43:26;99205.53;;;11.99;100.00
8286;BME280;4181;43.416;24.598;2022-11-20T00:48:24;99181.34;;;11.77;100.00
8286;BME280;4181;43.416;24.598;2022-11-20T00:50:50;99169.38;;;11.73;100.00
8286;BME280;4181;43.416;24.598;2022-11-20T00:53:15;99122.38;;;11.71;100.00
8286;BME280;4181;43.416;24.598;2022-11-20T00:55:40;99129.72;;;11.76;100.00
8286;BME280;4181;43.416;24.598;2022-11-20T00:58:06;99133.00;;;11.78;100.00
8286;BME280;4181;43.416;24.598;2022-11-20T01:00:31;99141.22;;;11.73;100.00
8286;BME280;4181;43.416;24.598;2022-11-20T01:02:57;99141.78;;;11.70;100.00
8286;BME280;4181;43.416;24.598;2022-11-20T01:05:22;99135.78;;;11.68;100.00
8286;BME280;4181;43.416;24.598;2022-11-20T01:07:48;99142.31;;;11.72;100.00
8286;BME280;4181;43.416;24.598;2022-11-20T01:10:13;99134.63;;;11.79;100.00
8286;BME280;4181;43.416;24.598;2022-11-20T01:12:38;99118.72;;;11.86;100.00
8286;BME280;4181;43.416;24.598;2022-11-20T01:15:04;99134.22;;;11.95;100.00
8286;BME280;4181;43.416;24.598;2022-11-20T01:17:31;99124.94;;;11.96;100.00
8286;BME280;4181;43.416;24.598;2022-11-20T01:19:58;99107.72;;;11.96;100.00
8286;BME280;4181;43.416;24.598;2022-11-20T01:22:23;99121.88;;;12.03;100.00
8286;BME280;4181;43.416;24.598;2022-11-20T01:24:49;99144.06;;;11.96;100.00
8286;BME280;4181;43.416;24.598;2022-11-20T01:27:14;99136.66;;;11.97;100.00
8286;BME280;4181;43.416;24.598;2022-11-20T01:29:40;99139.19;;;11.93;100.00
8286;BME280;4181;43.416;24.598;2022-11-20T01:32:05;99116.00;;;11.86;100.00
8286;BME280;4181;43.416;24.598;2022-11-20T01:34:31;99121.16;;;11.87;100.00
8286;BME280;4181;43.416;24.598;2022-11-20T01:36:56;99138.31;;;11.98;100.00
8286;BME280;4181;43.416;24.598;2022-11-20T01:39:26;99131.00;;;11.93;100.00
8286;BME280;4181;43.416;24.598;2022-11-20T01:41:53;99117.03;;;11.95;100.00
8286;BME280;4181;43.416;24.598;2022-11-20T01:47:15;99122.63;;;11.75;100.00
8286;BME280;4181;43.416;24.598;2022-11-20T01:49:56;99107.88;;;11.76;100.00
8286;BME280;4181;43.416;24.598;2022-11-20T01:52:28;99100.72;;;11.85;100.00
8286;BME280;4181;43.416;24.598;2022-11-20T01:55:01;99057.53;;;11.82;100.00
8286;BME280;4181;43.416;24.598;2022-11-20T01:57:29;99062.16;;;11.86;100.00
8286;BME280;4181;43.416;24.598;2022-11-20T02:00:03;99083.44;;;11.89;100.00
8286;BME280;4181;43.416;24.598;2022-11-20T02:02:29;99058.06;;;11.84;100.00
8286;BME280;4181;43.416;24.598;2022-11-20T02:04:57;99078.41;;;11.68;100.00
8286;BME280;4181;43.416;24.598;2022-11-20T02:07:26;99053.59;;;11.59;100.00
8286;BME280;4181;43.416;24.598;2022-11-20T02:09:51;99044.59;;;11.53;100.00
8286;BME280;4181;43.416;24.598;2022-11-20T02:12:17;99047.81;;;11.66;100.00
8286;BME280;4181;43.416;24.598;2022-11-20T02:15:01;99048.34;;;11.68;100.00
8286;BME280;4181;43.416;24.598;2022-11-20T02:17:27;99039.63;;;11.61;100.00
8286;BME280;4181;43.416;24.598;2022-11-20T02:19:53;99035.91;;;11.52;100.00
8286;BME280;4181;43.416;24.598;2022-11-20T02:22:28;99043.22;;;11.56;100.00
8286;BME280;4181;43.416;24.598;2022-11-20T02:24:56;99023.53;;;11.59;100.00
8286;BME280;4181;43.416;24.598;2022-11-20T02:27:24;99002.38;;;11.41;100.00
8286;BME280;4181;43.416;24.598;2022-11-20T02:29:53;99007.56;;;11.37;100.00
8286;BME280;4181;43.416;24.598;2022-11-20T02:32:29;99010.03;;;11.39;100.00
8286;BME280;4181;43.416;24.598;2022-11-20T02:34:55;99002.63;;;11.44;100.00
8286;BME280;4181;43.416;24.598;2022-11-20T02:37:21;99006.84;;;11.61;100.00
8286;BME280;4181;43.416;24.598;2022-11-20T02:39:49;98997.03;;;11.65;100.00
8286;BME280;4181;43.416;24.598;2022-11-20T02:42:15;98999.47;;;11.66;100.00
8286;BME280;4181;43.416;24.598;2022-11-20T02:44:40;98995.88;;;11.71;100.00
8286;BME280;4181;43.416;24.598;2022-11-20T02:47:07;99008.13;;;11.78;100.00
8286;BME280;4181;43.416;24.598;2022-11-20T02:49:33;99011.59;;;11.84;100.00
8286;BME280;4181;43.416;24.598;2022-11-20T02:51:58;99002.50;;;11.65;100.00
8286;BME280;4181;43.416;24.598;2022-11-20T02:54:24;99027.00;;;11.75;100.00
8286;BME280;4181;43.416;24.598;2022-11-20T02:56:49;99017.97;;;11.74;100.00
8286;BME280;4181;43.416;24.598;2022-11-20T02:59:15;99030.19;;;11.82;100.00
8286;BME280;4181;43.416;24.598;2022-11-20T03:01:40;99025.22;;;11.89;100.00
8286;BME280;4181;43.416;24.598;2022-11-20T03:04:06;99009.97;;;11.83;100.00
8286;BME280;4181;43.416;24.598;2022-11-20T03:06:31;99007.28;;;11.78;100.00
8286;BME280;4181;43.416;24.598;2022-11-20T03:08:57;98983.38;;;11.60;100.00
8286;BME280;4181;43.416;24.598;2022-11-20T03:11:22;98969.97;;;11.63;100.00
8286;BME280;4181;43.416;24.598;2022-11-20T03:13:47;98970.75;;;11.69;100.00
8286;BME280;4181;43.416;24.598;2022-11-20T03:16:19;98984.44;;;11.64;100.00
8286;BME280;4181;43.416;24.598;2022-11-20T03:18:45;98984.38;;;11.74;100.00
8286;BME280;4181;43.416;24.598;2022-11-20T03:21:12;98974.25;;;11.74;100.00
8286;BME280;4181;43.416;24.598;2022-11-20T03:23:38;98985.41;;;11.83;100.00
8286;BME280;4181;43.416;24.598;2022-11-20T03:26:15;98974.13;;;11.89;100.00
8286;BME280;4181;43.416;24.598;2022-11-20T03:28:45;98997.22;;;12.02;100.00
8286;BME280;4181;43.416;24.598;2022-11-20T03:31:13;99016.59;;;12.05;100.00
8286;BME280;4181;43.416;24.598;2022-11-20T03:33:40;99028.34;;;12.06;100.00
8286;BME280;4181;43.416;24.598;2022-11-20T03:36:09;99012.59;;;11.98;100.00
8286;BME280;4181;43.416;24.598;2022-11-20T03:38:36;99025.44;;;11.97;100.00
8286;BME280;4181;43.416;24.598;2022-11-20T03:41:07;99022.34;;;12.04;100.00
8286;BME280;4181;43.416;24.598;2022-11-20T03:43:33;99016.00;;;11.85;100.00
8286;BME280;4181;43.416;24.598;2022-11-20T03:45:59;99022.44;;;11.94;100.00
8286;BME280;4181;43.416;24.598;2022-11-20T03:48:25;99006.06;;;11.94;100.00
8286;BME280;4181;43.416;24.598;2022-11-20T03:50:52;99001.94;;;11.96;100.00
8286;BME280;4181;43.416;24.598;2022-11-20T03:53:18;98971.69;;;11.88;100.00
8286;BME280;4181;43.416;24.598;2022-11-20T03:55:44;98976.50;;;11.96;100.00
8286;BME280;4181;43.416;24.598;2022-11-20T03:58:10;98949.56;;;12.13;100.00
8286;BME280;4181;43.416;24.598;2022-11-20T04:00:35;98940.19;;;12.19;100.00
8286;BME280;4181;43.416;24.598;2022-11-20T04:03:02;98931.06;;;12.05;100.00
8286;BME280;4181;43.416;24.598;2022-11-20T04:05:27;98919.00;;;12.06;100.00
8286;BME280;4181;43.416;24.598;2022-11-20T04:07:53;98922.28;;;12.08;100.00
8286;BME280;4181;43.416;24.598;2022-11-20T04:10:19;98922.91;;;12.23;100.00
8286;BME280;4181;43.416;24.598;2022-11-20T04:12:45;98923.66;;;12.29;100.00
8286;BME280;4181;43.416;24.598;2022-11-20T04:15:10;98904.50;;;12.29;100.00
8286;BME280;4181;43.416;24.598;2022-11-20T04:17:36;98890.44;;;12.17;100.00
8286;BME280;4181;43.416;24.598;2022-11-20T04:20:01;98907.06;;;12.20;100.00
8286;BME280;4181;43.416;24.598;2022-11-20T04:22:27;98903.84;;;12.18;100.00
8286;BME280;4181;43.416;24.598;2022-11-20T04:24:53;98942.56;;;12.25;100.00
8286;BME280;4181;43.416;24.598;2022-11-20T04:27:18;98887.81;;;12.30;100.00
8286;BME280;4181;43.416;24.598;2022-11-20T04:29:44;98861.66;;;12.24;100.00
8286;BME280;4181;43.416;24.598;2022-11-20T04:32:09;98848.66;;;12.35;100.00
8286;BME280;4181;43.416;24.598;2022-11-20T04:34:34;98831.38;;;12.39;100.00
8286;BME280;4181;43.416;24.598;2022-11-20T04:37:00;98811.91;;;12.41;100.00
8286;BME280;4181;43.416;24.598;2022-11-20T04:39:26;98830.91;;;12.32;100.00
8286;BME280;4181;43.416;24.598;2022-11-20T04:41:51;98840.84;;;12.23;100.00
8286;BME280;4181;43.416;24.598;2022-11-20T04:44:35;98843.88;;;12.22;100.00
8286;BME280;4181;43.416;24.598;2022-11-20T04:47:01;98836.81;;;12.21;100.00
8286;BME280;4181;43.416;24.598;2022-11-20T04:49:26;98844.41;;;12.24;100.00
8286;BME280;4181;43.416;24.598;2022-11-20T04:51:55;98859.44;;;12.26;100.00
8286;BME280;4181;43.416;24.598;2022-11-20T04:54:20;98855.88;;;12.26;100.00
8286;BME280;4181;43.416;24.598;2022-11-20T04:56:49;98835.63;;;12.27;100.00
8286;BME280;4181;43.416;24.598;2022-11-20T04:59:15;98852.84;;;12.27;100.00
8286;BME280;4181;43.416;24.598;2022-11-20T05:01:41;98834.00;;;12.26;100.00
8286;BME280;4181;43.416;24.598;2022-11-20T05:04:06;98829.38;;;12.26;100.00
8286;BME280;4181;43.416;24.598;2022-11-20T05:06:32;98844.22;;;12.39;100.00
8286;BME280;4181;43.416;24.598;2022-11-20T05:08:58;98829.00;;;12.33;100.00
8286;BME280;4181;43.416;24.598;2022-11-20T05:11:24;98826.03;;;12.29;100.00
8286;BME280;4181;43.416;24.598;2022-11-20T05:13:51;98814.78;;;12.31;100.00
8286;BME280;4181;43.416;24.598;2022-11-20T05:16:20;98799.44;;;12.35;100.00
8286;BME280;4181;43.416;24.598;2022-11-20T05:18:46;98799.63;;;12.38;100.00
8286;BME280;4181;43.416;24.598;2022-11-20T05:21:12;98804.38;;;12.33;100.00
8286;BME280;4181;43.416;24.598;2022-11-20T05:23:39;98821.22;;;12.21;100.00
8286;BME280;4181;43.416;24.598;2022-11-20T05:26:06;98820.53;;;12.11;100.00
8286;BME280;4181;43.416;24.598;2022-11-20T05:28:32;98809.25;;;12.17;100.00
8286;BME280;4181;43.416;24.598;2022-11-20T05:31:10;98803.34;;;12.29;100.00
8286;BME280;4181;43.416;24.598;2022-11-20T05:33:36;98801.56;;;12.19;100.00
8286;BME280;4181;43.416;24.598;2022-11-20T05:36:03;98803.53;;;12.14;100.00
8286;BME280;4181;43.416;24.598;2022-11-20T05:38:29;98812.28;;;12.16;100.00
8286;BME280;4181;43.416;24.598;2022-11-20T05:40:54;98814.59;;;12.04;100.00
8286;BME280;4181;43.416;24.598;2022-11-20T05:43:20;98824.81;;;12.17;100.00
8286;BME280;4181;43.416;24.598;2022-11-20T05:45:54;98839.84;;;12.19;100.00
8286;BME280;4181;43.416;24.598;2022-11-20T05:48:20;98849.59;;;12.25;100.00
8286;BME280;4181;43.416;24.598;2022-11-20T05:50:47;98849.66;;;12.20;100.00
8286;BME280;4181;43.416;24.598;2022-11-20T05:53:13;98858.34;;;12.04;100.00
8286;BME280;4181;43.416;24.598;2022-11-20T05:55:38;98859.41;;;12.08;100.00
8286;BME280;4181;43.416;24.598;2022-11-20T05:58:03;98869.56;;;12.02;100.00
8286;BME280;4181;43.416;24.598;2022-11-20T06:00:29;98873.38;;;12.06;100.00
8286;BME280;4181;43.416;24.598;2022-11-20T06:02:54;98882.28;;;12.12;100.00
8286;BME280;4181;43.416;24.598;2022-11-20T06:05:20;98876.22;;;11.96;100.00
8286;BME280;4181;43.416;24.598;2022-11-20T06:07:45;98900.56;;;11.93;100.00
8286;BME280;4181;43.416;24.598;2022-11-20T06:10:11;98883.13;;;11.89;100.00
8286;BME280;4181;43.416;24.598;2022-11-20T06:12:36;98877.28;;;11.72;100.00
8286;BME280;4181;43.416;24.598;2022-11-20T06:15:03;98863.56;;;11.77;100.00
8286;BME280;4181;43.416;24.598;2022-11-20T06:17:29;98868.38;;;11.90;100.00
8286;BME280;4181;43.416;24.598;2022-11-20T06:19:54;98874.06;;;11.93;100.00
8286;BME280;4181;43.416;24.598;2022-11-20T06:22:20;98878.34;;;11.99;100.00
8286;BME280;4181;43.416;24.598;2022-11-20T06:24:45;98869.38;;;11.94;100.00
8286;BME280;4181;43.416;24.598;2022-11-20T06:27:11;98886.16;;;12.11;100.00
8286;BME280;4181;43.416;24.598;2022-11-20T06:29:36;98909.94;;;12.10;100.00
8286;BME280;4181;43.416;24.598;2022-11-20T06:32:02;98915.97;;;12.07;100.00
8286;BME280;4181;43.416;24.598;2022-11-20T06:34:27;98920.72;;;11.97;100.00
8286;BME280;4181;43.416;24.598;2022-11-20T06:36:52;98946.50;;;11.91;100.00
8286;BME280;4181;43.416;24.598;2022-11-20T06:39:18;98925.50;;;11.86;100.00
8286;BME280;4181;43.416;24.598;2022-11-20T06:41:43;98931.31;;;11.80;100.00
8286;BME280;4181;43.416;24.598;2022-11-20T06:44:09;98925.00;;;11.50;100.00
8286;BME280;4181;43.416;24.598;2022-11-20T06:46:34;98922.22;;;11.56;100.00
8286;BME280;4181;43.416;24.598;2022-11-20T06:48:59;98902.81;;;11.57;100.00
8286;BME280;4181;43.416;24.598;2022-11-20T06:51:25;98894.16;;;11.45;100.00
8286;BME280;4181;43.416;24.598;2022-11-20T06:53:50;98895.13;;;11.30;100.00
8286;BME280;4181;43.416;24.598;2022-11-20T06:56:16;98872.88;;;11.13;100.00
8286;BME280;4181;43.416;24.598;2022-11-20T06:58:41;98876.78;;;11.02;100.00
8286;BME280;4181;43.416;24.598;2022-11-20T07:01:10;98873.41;;;11.15;100.00
8286;BME280;4181;43.416;24.598;2022-11-20T07:03:36;98860.88;;;11.14;100.00
8286;BME280;4181;43.416;24.598;2022-11-20T07:06:02;98855.88;;;11.26;100.00
8286;BME280;4181;43.416;24.598;2022-11-20T07:08:28;98837.31;;;11.23;100.00
8286;BME280;4181;43.416;24.598;2022-11-20T07:10:57;98841.00;;;11.09;100.00
8286;BME280;4181;43.416;24.598;2022-11-20T07:13:23;98816.38;;;11.14;100.00
8286;BME280;4181;43.416;24.598;2022-11-20T07:15:49;98800.19;;;11.22;100.00
8286;BME280;4181;43.416;24.598;2022-11-20T07:18:14;98788.16;;;11.23;100.00
8286;BME280;4181;43.416;24.598;2022-11-20T07:20:40;98775.06;;;11.49;100.00
8286;BME280;4181;43.416;24.598;2022-11-20T07:23:05;98776.88;;;11.59;100.00
8286;BME280;4181;43.416;24.598;2022-11-20T07:25:30;98785.06;;;11.59;100.00
8286;BME280;4181;43.416;24.598;2022-11-20T07:27:57;98797.16;;;11.52;100.00
8286;BME280;4181;43.416;24.598;2022-11-20T07:30:23;98793.28;;;11.30;100.00
8286;BME280;4181;43.416;24.598;2022-11-20T07:32:52;98780.81;;;11.47;100.00
8286;BME280;4181;43.416;24.598;2022-11-20T07:35:19;98778.97;;;11.43;100.00
8286;BME280;4181;43.416;24.598;2022-11-20T07:37:44;98771.22;;;11.26;100.00
8286;BME280;4181;43.416;24.598;2022-11-20T07:40:12;98747.63;;;11.35;100.00
8286;BME280;4181;43.416;24.598;2022-11-20T07:42:37;98757.31;;;11.52;100.00
8286;BME280;4181;43.416;24.598;2022-11-20T07:45:03;98749.06;;;11.57;100.00
8286;BME280;4181;43.416;24.598;2022-11-20T07:47:28;98740.91;;;11.75;100.00
8286;BME280;4181;43.416;24.598;2022-11-20T07:49:54;98736.84;;;11.73;100.00
8286;BME280;4181;43.416;24.598;2022-11-20T07:52:19;98725.19;;;11.86;100.00
8286;BME280;4181;43.416;24.598;2022-11-20T07:54:45;98723.66;;;11.80;100.00
8286;BME280;4181;43.416;24.598;2022-11-20T07:57:10;98735.53;;;11.89;100.00
8286;BME280;4181;43.416;24.598;2022-11-20T07:59:35;98736.28;;;11.94;100.00
8286;BME280;4181;43.416;24.598;2022-11-20T08:02:01;98734.94;;;11.92;100.00
8286;BME280;4181;43.416;24.598;2022-11-20T08:04:26;98746.94;;;11.96;100.00
8286;BME280;4181;43.416;24.598;2022-11-20T08:06:52;98746.19;;;12.09;100.00
8286;BME280;4181;43.416;24.598;2022-11-20T08:09:17;98755.28;;;12.04;100.00
8286;BME280;4181;43.416;24.598;2022-11-20T08:11:43;98740.50;;;12.05;100.00
8286;BME280;4181;43.416;24.598;2022-11-20T08:14:27;98723.47;;;12.13;100.00
8286;BME280;4181;43.416;24.598;2022-11-20T08:16:53;98729.44;;;12.15;100.00
8286;BME280;4181;43.416;24.598;2022-11-20T08:19:18;98721.00;;;12.30;100.00
8286;BME280;4181;43.416;24.598;2022-11-20T08:21:44;98734.66;;;12.30;100.00
8286;BME280;4181;43.416;24.598;2022-11-20T08:24:10;98758.91;;;12.37;100.00
8286;BME280;4181;43.416;24.598;2022-11-20T08:26:37;98762.38;;;12.24;100.00
8286;BME280;4181;43.416;24.598;2022-11-20T08:29:04;98766.88;;;12.33;100.00
8286;BME280;4181;43.416;24.598;2022-11-20T08:31:30;98773.41;;;12.37;100.00
8286;BME280;4181;43.416;24.598;2022-11-20T08:33:55;98770.44;;;12.34;100.00
8286;BME280;4181;43.416;24.598;2022-11-20T08:36:21;98761.50;;;12.28;100.00
8286;BME280;4181;43.416;24.598;2022-11-20T08:38:48;98763.97;;;12.30;100.00
8286;BME280;4181;43.416;24.598;2022-11-20T08:41:14;98759.50;;;12.34;100.00
8286;BME280;4181;43.416;24.598;2022-11-20T08:44:09;98753.06;;;12.43;100.00
8286;BME280;4181;43.416;24.598;2022-11-20T08:46:39;98759.19;;;12.54;100.00
8286;BME280;4181;43.416;24.598;2022-11-20T08:49:08;98756.31;;;12.64;100.00
8286;BME280;4181;43.416;24.598;2022-11-20T08:51:35;98748.31;;;12.67;100.00
8286;BME280;4181;43.416;24.598;2022-11-20T08:54:00;98740.03;;;12.72;100.00
8286;BME280;4181;43.416;24.598;2022-11-20T08:56:26;98724.25;;;12.83;100.00
8286;BME280;4181;43.416;24.598;2022-11-20T08:58:52;98735.91;;;12.89;100.00
8286;BME280;4181;43.416;24.598;2022-11-20T09:01:19;98737.09;;;13.01;100.00
8286;BME280;4181;43.416;24.598;2022-11-20T09:03:45;98746.84;;;13.07;100.00
8286;BME280;4181;43.416;24.598;2022-11-20T09:06:11;98751.31;;;13.03;100.00
8286;BME280;4181;43.416;24.598;2022-11-20T09:08:37;98743.00;;;13.08;100.00
8286;BME280;4181;43.416;24.598;2022-11-20T09:11:03;98744.00;;;13.12;100.00
8286;BME280;4181;43.416;24.598;2022-11-20T09:13:30;98743.53;;;13.24;100.00
8286;BME280;4181;43.416;24.598;2022-11-20T09:15:57;98750.84;;;13.28;100.00
8286;BME280;4181;43.416;24.598;2022-11-20T09:18:24;98756.81;;;13.17;100.00
8286;BME280;4181;43.416;24.598;2022-11-20T09:20:49;98761.47;;;13.16;100.00
8286;BME280;4181;43.416;24.598;2022-11-20T09:23:15;98773.69;;;13.05;100.00
8286;BME280;4181;43.416;24.598;2022-11-20T09:25:41;98774.44;;;12.60;100.00
8286;BME280;4181;43.416;24.598;2022-11-20T09:28:07;98752.66;;;12.68;100.00
8286;BME280;4181;43.416;24.598;2022-11-20T09:30:32;98738.91;;;12.73;100.00
8286;BME280;4181;43.416;24.598;2022-11-20T09:32:57;98726.38;;;12.86;100.00
8286;BME280;4181;43.416;24.598;2022-11-20T09:35:23;98740.53;;;12.74;100.00
8286;BME280;4181;43.416;24.598;2022-11-20T09:37:48;98724.22;;;12.69;100.00
8286;BME280;4181;43.416;24.598;2022-11-20T09:40:23;98722.28;;;12.70;100.00
8286;BME280;4181;43.416;24.598;2022-11-20T09:45:47;98705.50;;;12.90;100.00
8286;BME280;4181;43.416;24.598;2022-11-20T09:48:49;98704.91;;;12.93;100.00
8286;BME280;4181;43.416;24.598;2022-11-20T09:56:41;98695.50;;;12.99;100.00
8286;BME280;4181;43.416;24.598;2022-11-20T09:59:26;98697.72;;;12.97;100.00
8286;BME280;4181;43.416;24.598;2022-11-20T10:01:55;98720.69;;;13.01;100.00
8286;BME280;4181;43.416;24.598;2022-11-20T10:04:22;98725.19;;;12.92;100.00
8286;BME280;4181;43.416;24.598;2022-11-20T10:07:00;98726.66;;;13.03;100.00
8286;BME280;4181;43.416;24.598;2022-11-20T10:09:31;98736.13;;;12.92;100.00
8286;BME280;4181;43.416;24.598;2022-11-20T10:12:34;98731.88;;;13.18;100.00
8286;BME280;4181;43.416;24.598;2022-11-20T10:15:38;98737.75;;;13.25;100.00
8286;BME280;4181;43.416;24.598;2022-11-20T10:21:18;98721.13;;;13.35;100.00
8286;BME280;4181;43.416;24.598;2022-11-20T10:29:07;98743.03;;;13.35;100.00
8286;BME280;4181;43.416;24.598;2022-11-20T10:31:54;98747.13;;;13.51;100.00
8286;BME280;4181;43.416;24.598;2022-11-20T10:34:45;98773.91;;;13.54;100.00
8286;BME280;4181;43.416;24.598;2022-11-20T10:37:21;98789.03;;;13.65;100.00
8286;BME280;4181;43.416;24.598;2022-11-20T10:42:43;98843.53;;;13.80;100.00
8286;BME280;4181;43.416;24.598;2022-11-20T10:47:54;98838.69;;;13.77;100.00
8286;BME280;4181;43.416;24.598;2022-11-20T10:50:22;98805.56;;;13.74;100.00
8286;BME280;4181;43.416;24.598;2022-11-20T10:55:54;98788.44;;;13.68;100.00
8286;BME280;4181;43.416;24.598;2022-11-20T11:01:24;98750.94;;;13.50;100.00
8286;BME280;4181;43.416;24.598;2022-11-20T11:03:52;98740.91;;;13.46;100.00
8286;BME280;4181;43.416;24.598;2022-11-20T11:08:44;98705.50;;;13.49;100.00
8286;BME280;4181;43.416;24.598;2022-11-20T11:11:22;98689.69;;;13.46;100.00
8286;BME280;4181;43.416;24.598;2022-11-20T11:13:49;98681.25;;;13.43;100.00
8286;BME280;4181;43.416;24.598;2022-11-20T11:16:23;98665.75;;;13.25;100.00
8286;BME280;4181;43.416;24.598;2022-11-20T11:18:49;98632.22;;;13.01;100.00
8286;BME280;4181;43.416;24.598;2022-11-20T11:21:24;98598.75;;;12.63;100.00
8286;BME280;4181;43.416;24.598;2022-11-20T11:24:02;98568.31;;;12.51;100.00
8286;BME280;4181;43.416;24.598;2022-11-20T11:26:28;98544.19;;;12.39;100.00
8286;BME280;4181;43.416;24.598;2022-11-20T11:28:59;98524.84;;;12.36;100.00
8286;BME280;4181;43.416;24.598;2022-11-20T11:31:30;98506.13;;;12.43;100.00
8286;BME280;4181;43.416;24.598;2022-11-20T11:34:12;98447.25;;;12.59;100.00
8286;BME280;4181;43.416;24.598;2022-11-20T11:36:38;98420.19;;;12.57;100.00
8286;BME280;4181;43.416;24.598;2022-11-20T11:39:06;98405.59;;;12.48;100.00
8286;BME280;4181;43.416;24.598;2022-11-20T11:41:36;98387.06;;;12.45;100.00
8286;BME280;4181;43.416;24.598;2022-11-20T11:44:31;98385.88;;;12.51;100.00
8286;BME280;4181;43.416;24.598;2022-11-20T11:47:23;98376.75;;;12.42;100.00
8286;BME280;4181;43.416;24.598;2022-11-20T11:50:01;98344.47;;;12.31;100.00
8286;BME280;4181;43.416;24.598;2022-11-20T11:52:26;98339.00;;;12.31;100.00
8286;BME280;4181;43.416;24.598;2022-11-20T11:54:57;98320.16;;;12.43;100.00
8286;BME280;4181;43.416;24.598;2022-11-20T11:57:38;98311.44;;;12.41;100.00
8286;BME280;4181;43.416;24.598;2022-11-20T12:00:12;98306.78;;;12.41;100.00
8286;BME280;4181;43.416;24.598;2022-11-20T12:13:14;98224.53;;;12.82;100.00
8286;BME280;4181;43.416;24.598;2022-11-20T12:15:44;98220.38;;;12.85;100.00
8286;BME280;4181;43.416;24.598;2022-11-20T12:18:18;98229.13;;;12.95;100.00
8286;BME280;4181;43.416;24.598;2022-11-20T12:26:37;98233.50;;;13.18;100.00
8286;BME280;4181;43.416;24.598;2022-11-20T12:43:24;98273.22;;;13.77;100.00
8286;BME280;4181;43.416;24.598;2022-11-20T13:02:34;98417.81;;;13.27;100.00
8286;BME280;4181;43.416;24.598;2022-11-20T13:08:00;98357.06;;;13.47;100.00
8286;BME280;4181;43.416;24.598;2022-11-20T13:15:47;98370.22;;;13.15;100.00
8286;BME280;4181;43.416;24.598;2022-11-20T13:18:15;98374.00;;;13.27;100.00
8286;BME280;4181;43.416;24.598;2022-11-20T13:20:45;98358.00;;;13.43;100.00
8286;BME280;4181;43.416;24.598;2022-11-20T13:23:11;98333.53;;;13.46;100.00
8286;BME280;4181;43.416;24.598;2022-11-20T13:25:39;98344.22;;;13.56;100.00
8286;BME280;4181;43.416;24.598;2022-11-20T13:28:28;98358.06;;;13.51;100.00
8286;BME280;4181;43.416;24.598;2022-11-20T13:30:57;98357.31;;;13.59;100.00
8286;BME280;4181;43.416;24.598;2022-11-20T13:33:30;98372.41;;;13.48;100.00
8286;BME280;4181;43.416;24.598;2022-11-20T13:39:00;98359.28;;;13.45;100.00
8286;BME280;4181;43.416;24.598;2022-11-20T13:44:26;98357.88;;;13.48;100.00
8286;BME280;4181;43.416;24.598;2022-11-20T13:46:51;98362.41;;;13.52;100.00
8286;BME280;4181;43.416;24.598;2022-11-20T13:49:30;98370.50;;;13.57;100.00
8286;BME280;4181;43.416;24.598;2022-11-20T14:00:44;98457.06;;;13.58;100.00
8286;BME280;4181;43.416;24.598;2022-11-20T14:05:54;98459.56;;;13.46;100.00
8286;BME280;4181;43.416;24.598;2022-11-20T14:08:33;98461.72;;;13.36;100.00
8286;BME280;4181;43.416;24.598;2022-11-20T14:11:06;98445.59;;;13.34;100.00
8286;BME280;4181;43.416;24.598;2022-11-20T14:13:38;98437.81;;;13.28;100.00
8286;BME280;4181;43.416;24.598;2022-11-20T14:16:03;98430.41;;;13.28;100.00
8286;BME280;4181;43.416;24.598;2022-11-20T14:18:29;98437.19;;;13.31;100.00
8286;BME280;4181;43.416;24.598;2022-11-20T14:20:54;98431.59;;;13.36;100.00
8286;BME280;4181;43.416;24.598;2022-11-20T14:23:28;98439.97;;;13.17;100.00
8286;BME280;4181;43.416;24.598;2022-11-20T14:25:54;98430.78;;;13.00;100.00
8286;BME280;4181;43.416;24.598;2022-11-20T14:28:26;98407.41;;;12.80;100.00
8286;BME280;4181;43.416;24.598;2022-11-20T14:30:52;98349.69;;;12.54;100.00
8286;BME280;4181;43.416;24.598;2022-11-20T14:33:18;98296.50;;;12.47;100.00
8286;BME280;4181;43.416;24.598;2022-11-20T14:35:49;98253.75;;;12.51;100.00
8286;BME280;4181;43.416;24.598;2022-11-20T14:38:18;98237.47;;;12.46;100.00
8286;BME280;4181;43.416;24.598;2022-11-20T14:40:45;98207.91;;;12.48;100.00
8286;BME280;4181;43.416;24.598;2022-11-20T14:45:52;98170.31;;;12.62;100.00
8286;BME280;4181;43.416;24.598;2022-11-20T14:48:18;98154.66;;;12.76;100.00
8286;BME280;4181;43.416;24.598;2022-11-20T14:50:44;98166.47;;;12.85;100.00
8286;BME280;4181;43.416;24.598;2022-11-20T14:53:10;98167.13;;;12.91;100.00
8286;BME280;4181;43.416;24.598;2022-11-20T14:55:37;98161.28;;;12.84;100.00
8286;BME280;4181;43.416;24.598;2022-11-20T14:58:04;98157.19;;;12.95;100.00